Time;durP1;ratioP1;P1;durP2;ratioP2;P2;SDS_P1;SDS_P2;PMS_P1;PMS_P2;Temp;Humidity;BMP_temperature;BMP_pressure;BME280_temperature;BME280_humidity;BME280_pressure;Samples;Min_cycle;Max_cycle;Signal;HPM_P1;HPM_P2
2022/07/21 00:00:32;;;;;;;1.83;1.20;;;19.10;99.90;;;;;;5094948;28;20178;-62
2022/07/21 00:02:59;;;;;;;1.30;1.10;;;19.20;99.90;;;;;;5094837;28;20189;-61
2022/07/21 00:05:25;;;;;;;2.50;1.30;;;19.10;99.90;;;;;;5095079;28;20170;-62
2022/07/21 00:07:52;;;;;;;1.45;1.20;;;19.10;99.90;;;;;;5094835;28;20178;-62
2022/07/21 00:10:19;;;;;;;1.10;1.00;;;19.10;99.90;;;;;;5095045;28;20703;-62
2022/07/21 00:12:45;;;;;;;1.23;1.08;;;19.10;99.90;;;;;;5094586;28;20266;-63
2022/07/21 00:15:14;;;;;;;1.48;1.10;;;19.10;99.90;;;;;;5094644;28;20174;-62
2022/07/21 00:17:40;;;;;;;1.33;1.15;;;19.00;99.90;;;;;;5094523;28;20170;-62
2022/07/21 00:20:07;;;;;;;1.23;1.13;;;19.00;99.90;;;;;;5094755;28;20228;-61
2022/07/21 00:22:33;;;;;;;1.67;1.20;;;19.00;99.90;;;;;;5059978;28;20182;-62
2022/07/21 00:24:59;;;;;;;1.48;1.20;;;19.00;99.90;;;;;;5094603;28;20728;-62
2022/07/21 00:27:25;;;;;;;1.17;1.02;;;19.00;99.90;;;;;;5076552;28;20182;-61
2022/07/21 00:29:51;;;;;;;1.27;1.00;;;19.00;99.90;;;;;;5059889;28;20188;-62
2022/07/21 00:32:17;;;;;;;2.13;1.02;;;18.90;99.90;;;;;;5094193;28;20202;-61
2022/07/21 00:34:44;;;;;;;1.65;1.23;;;18.90;99.90;;;;;;5076565;28;20184;-62
2022/07/21 00:37:10;;;;;;;1.33;0.90;;;18.80;99.90;;;;;;5094261;28;20213;-62
2022/07/21 00:39:36;;;;;;;1.35;1.10;;;18.80;99.90;;;;;;5076200;28;20623;-64
2022/07/21 00:42:02;;;;;;;1.40;1.30;;;18.80;99.90;;;;;;5094163;28;20619;-61
2022/07/21 00:44:28;;;;;;;1.20;1.08;;;18.80;99.90;;;;;;5094164;28;20398;-64
2022/07/21 00:46:55;;;;;;;2.45;0.88;;;18.80;99.90;;;;;;5094037;28;20174;-64
2022/07/21 00:49:21;;;;;;;2.13;1.50;;;18.70;99.90;;;;;;5094219;28;20178;-62
2022/07/21 00:51:48;;;;;;;1.60;1.50;;;18.70;99.90;;;;;;5094052;28;20293;-61
2022/07/21 00:54:17;;;;;;;1.60;1.30;;;18.80;99.90;;;;;;5094062;28;20185;-62
2022/07/21 00:56:43;;;;;;;1.25;1.15;;;18.70;99.90;;;;;;5093957;28;20170;-62
2022/07/21 00:59:10;;;;;;;2.53;1.50;;;18.70;99.90;;;;;;5093792;28;20189;-61
2022/07/21 01:01:36;;;;;;;1.42;1.30;;;18.70;99.90;;;;;;5093812;28;20174;-62
2022/07/21 01:04:02;;;;;;;2.30;1.60;;;18.70;99.90;;;;;;5093925;28;20181;-62
2022/07/21 01:06:28;;;;;;;1.30;1.20;;;18.70;99.90;;;;;;5093812;28;20676;-62
2022/07/21 01:08:54;;;;;;;1.63;1.33;;;18.70;99.90;;;;;;5093870;28;20174;-62
2022/07/21 01:11:21;;;;;;;1.55;1.30;;;18.70;99.90;;;;;;5093416;28;20586;-62
2022/07/21 01:13:47;;;;;;;2.08;1.40;;;18.60;99.90;;;;;;5093713;28;20169;-61
2022/07/21 01:16:14;;;;;;;1.40;1.30;;;18.60;99.90;;;;;;5075780;28;20194;-62
2022/07/21 01:18:40;;;;;;;1.63;1.23;;;18.60;99.90;;;;;;5075622;28;20170;-62
2022/07/21 01:21:33;;;;;;;2.55;1.33;;;18.60;99.90;;;;;;5093503;28;20185;-62
2022/07/21 01:24:00;;;;;;;1.45;1.30;;;18.60;99.90;;;;;;5083399;28;20186;-63
2022/07/21 01:26:26;;;;;;;1.60;1.13;;;18.60;99.90;;;;;;5093406;28;20174;-62
2022/07/21 01:28:52;;;;;;;1.30;1.08;;;18.60;99.90;;;;;;5093648;28;20531;-63
2022/07/21 01:31:18;;;;;;;1.67;1.50;;;18.50;99.90;;;;;;5075494;28;20246;-63
2022/07/21 01:33:44;;;;;;;1.02;0.93;;;18.60;99.90;;;;;;5075421;28;20243;-63
2022/07/21 01:36:10;;;;;;;0.95;0.93;;;18.70;99.90;;;;;;5092987;28;20619;-60
2022/07/21 01:41:29;;;;;;;1.20;1.00;;;18.60;99.90;;;;;;5093654;28;20276;-63
2022/07/21 01:44:01;;;;;;;1.50;1.23;;;18.60;99.90;;;;;;5060182;28;20177;-63
2022/07/21 01:46:28;;;;;;;2.50;1.20;;;18.60;99.90;;;;;;5093397;28;20169;-63
2022/07/21 01:48:54;;;;;;;1.23;1.00;;;18.50;99.90;;;;;;5075131;28;20246;-63
2022/07/21 01:51:19;;;;;;;1.25;1.10;;;18.50;99.90;;;;;;5093403;28;20566;-63
2022/07/21 01:53:45;;;;;;;0.70;0.70;;;18.60;99.90;;;;;;5093433;28;20599;-63
2022/07/21 01:56:11;;;;;;;1.10;1.00;;;18.50;99.90;;;;;;5075349;28;20174;-62
2022/07/21 01:58:36;;;;;;;1.98;1.10;;;18.50;99.90;;;;;;5093286;28;20205;-62
2022/07/21 02:01:02;;;;;;;0.90;0.90;;;18.40;99.90;;;;;;5093489;28;20178;-63
2022/07/21 02:03:28;;;;;;;1.33;0.90;;;18.50;99.90;;;;;;5075153;28;20182;-63
2022/07/21 02:06:00;;;;;;;0.93;0.88;;;18.40;99.90;;;;;;5092981;28;20174;-63
2022/07/21 02:08:26;;;;;;;1.02;0.90;;;18.40;99.90;;;;;;5058532;28;20185;-62
2022/07/21 02:10:52;;;;;;;1.52;1.00;;;18.40;99.90;;;;;;5093076;28;20182;-62
2022/07/21 02:13:17;;;;;;;1.17;0.77;;;18.30;99.90;;;;;;5075514;28;20531;-63
2022/07/21 02:15:43;;;;;;;1.33;1.13;;;18.40;99.90;;;;;;5093067;28;20219;-63
2022/07/21 02:18:09;;;;;;;1.27;1.00;;;18.40;99.90;;;;;;5092999;28;20217;-63
2022/07/21 02:20:35;;;;;;;0.98;0.80;;;18.30;99.90;;;;;;5092861;28;20171;-62
2022/07/21 02:23:00;;;;;;;1.25;1.10;;;18.30;99.90;;;;;;5092973;28;20178;-62
2022/07/21 02:25:26;;;;;;;1.88;1.23;;;18.40;99.90;;;;;;5074953;28;20178;-63
2022/07/21 02:27:52;;;;;;;1.90;1.00;;;18.50;99.90;;;;;;5093044;28;20170;-63
2022/07/21 02:30:18;;;;;;;1.38;1.20;;;18.50;99.90;;;;;;5092926;28;20174;-63
2022/07/21 02:32:44;;;;;;;1.42;0.90;;;18.40;99.90;;;;;;5092803;28;20220;-63
2022/07/21 02:35:10;;;;;;;1.52;1.13;;;18.30;99.90;;;;;;5092733;28;20174;-58
2022/07/21 02:37:38;;;;;;;0.90;0.80;;;18.30;99.90;;;;;;5093025;28;20253;-63
2022/07/21 02:40:04;;;;;;;2.08;1.30;;;18.30;99.90;;;;;;5092945;28;20188;-63
2022/07/21 02:42:30;;;;;;;0.98;0.80;;;18.30;99.90;;;;;;5092891;28;20177;-63
2022/07/21 02:44:58;;;;;;;0.98;0.88;;;18.30;99.90;;;;;;5092796;28;20174;-63
2022/07/21 02:47:24;;;;;;;1.40;1.30;;;18.30;99.90;;;;;;5094620;28;20171;-63
2022/07/21 02:49:50;;;;;;;2.03;1.13;;;18.30;99.90;;;;;;5096299;28;20227;-63
2022/07/21 02:52:15;;;;;;;1.02;0.90;;;18.40;99.90;;;;;;5078177;28;20260;-63
2022/07/21 02:54:41;;;;;;;1.40;1.30;;;18.50;99.90;;;;;;5096396;28;20181;-63
2022/07/21 02:57:07;;;;;;;1.15;1.00;;;18.40;99.90;;;;;;5078267;28;20175;-63
2022/07/21 02:59:32;;;;;;;1.13;0.90;;;18.40;99.90;;;;;;5096087;28;20212;-63
2022/07/21 03:01:58;;;;;;;1.08;0.98;;;18.30;99.90;;;;;;5078158;28;20192;-62
2022/07/21 03:04:24;;;;;;;1.98;1.00;;;18.30;99.90;;;;;;5095990;28;20170;-63
2022/07/21 03:06:49;;;;;;;1.20;1.10;;;18.30;99.90;;;;;;5078419;28;20236;-63
2022/07/21 03:09:15;;;;;;;1.20;0.90;;;18.40;99.90;;;;;;5077859;28;20178;-63
2022/07/21 03:11:41;;;;;;;1.38;1.05;;;18.50;99.90;;;;;;5077510;28;20226;-63
2022/07/21 03:14:06;;;;;;;1.10;0.93;;;18.40;99.90;;;;;;5095905;28;20166;-63
2022/07/21 03:16:32;;;;;;;1.75;1.23;;;18.30;99.90;;;;;;5095844;28;20200;-63
2022/07/21 03:18:58;;;;;;;1.13;0.95;;;18.30;99.90;;;;;;5077683;28;20582;-59
2022/07/21 03:21:23;;;;;;;1.00;0.90;;;18.40;99.90;;;;;;5095893;28;20182;-63
2022/07/21 03:23:49;;;;;;;1.08;0.90;;;18.40;99.90;;;;;;5077660;28;20635;-63
2022/07/21 03:26:16;;;;;;;1.73;1.10;;;18.50;99.90;;;;;;5077739;28;20174;-64
2022/07/21 03:28:42;;;;;;;2.28;1.38;;;18.40;99.90;;;;;;5095573;28;20185;-63
2022/07/21 03:31:08;;;;;;;2.63;1.10;;;18.40;99.90;;;;;;5095528;28;20459;-63
2022/07/21 03:33:34;;;;;;;1.50;1.10;;;18.40;99.90;;;;;;5077389;28;20257;-62
2022/07/21 03:36:01;;;;;;;1.38;1.13;;;18.40;99.90;;;;;;5095670;28;20646;-63
2022/07/21 03:38:26;;;;;;;1.52;1.15;;;18.50;99.90;;;;;;5060885;28;20210;-63
2022/07/21 03:40:52;;;;;;;2.03;1.00;;;18.50;99.90;;;;;;5095385;28;20251;-63
2022/07/21 03:43:19;;;;;;;1.85;1.30;;;18.60;99.90;;;;;;5060636;28;20188;-63
2022/07/21 03:45:45;;;;;;;1.95;1.33;;;18.60;99.90;;;;;;5095229;28;20182;-63
2022/07/21 03:48:12;;;;;;;2.22;1.33;;;18.70;99.90;;;;;;5095082;28;20169;-62
2022/07/21 03:50:40;;;;;;;2.72;1.63;;;18.70;99.90;;;;;;5095316;28;20201;-63
2022/07/21 03:53:07;;;;;;;1.10;0.90;;;18.80;99.90;;;;;;5095356;28;20673;-64
2022/07/21 03:55:33;;;;;;;1.42;1.17;;;18.80;99.90;;;;;;5095076;28;20662;-63
2022/07/21 03:58:04;;;;;;;1.38;1.27;;;18.80;99.90;;;;;;5094601;28;20170;-62
2022/07/21 04:00:36;;;;;;;1.27;1.17;;;18.80;99.90;;;;;;5076797;28;20694;-63
2022/07/21 04:03:04;;;;;;;1.90;1.20;;;18.80;99.90;;;;;;5095248;28;20166;-64
2022/07/21 04:05:30;;;;;;;1.30;1.20;;;18.80;99.90;;;;;;5094983;28;20524;-63
2022/07/21 04:07:56;;;;;;;1.90;1.02;;;18.80;99.90;;;;;;5095017;28;20627;-63
2022/07/21 04:10:24;;;;;;;1.75;1.20;;;18.90;99.90;;;;;;5076788;28;20194;-59
2022/07/21 04:12:50;;;;;;;1.63;1.38;;;18.90;99.90;;;;;;5076598;28;20589;-63
2022/07/21 04:15:17;;;;;;;1.40;1.13;;;18.90;99.90;;;;;;5076520;28;20257;-64
2022/07/21 04:17:43;;;;;;;2.47;1.50;;;18.80;99.90;;;;;;5094576;28;20261;-63
2022/07/21 04:20:09;;;;;;;3.35;1.88;;;18.70;99.90;;;;;;5076526;28;20331;-63
2022/07/21 04:22:36;;;;;;;1.60;1.30;;;18.80;99.90;;;;;;5076587;28;20272;-62
2022/07/21 04:25:04;;;;;;;2.17;1.77;;;18.80;99.90;;;;;;5094567;28;20166;-63
2022/07/21 04:27:30;;;;;;;1.70;1.40;;;18.80;99.90;;;;;;5094355;28;20177;-63
2022/07/21 04:29:56;;;;;;;2.42;1.67;;;18.80;99.90;;;;;;5076383;28;20249;-63
2022/07/21 04:32:21;;;;;;;2.03;1.70;;;18.80;99.90;;;;;;5094546;28;20351;-63
2022/07/21 04:34:47;;;;;;;2.90;1.70;;;18.90;99.90;;;;;;5094514;28;20577;-63
2022/07/21 04:37:13;;;;;;;2.65;1.88;;;18.90;99.90;;;;;;5094550;28;20271;-63
2022/07/21 04:39:38;;;;;;;2.20;1.90;;;18.90;99.90;;;;;;5094617;28;20182;-62
2022/07/21 04:42:07;;;;;;;2.33;1.83;;;18.80;99.90;;;;;;5075984;28;20178;-62
2022/07/21 04:44:33;;;;;;;3.25;2.10;;;18.80;99.90;;;;;;5094351;28;20630;-63
2022/07/21 04:46:59;;;;;;;2.03;1.83;;;18.80;99.90;;;;;;5094232;28;20178;-62
2022/07/21 04:49:24;;;;;;;2.67;1.83;;;18.80;99.90;;;;;;5075962;28;20170;-62
2022/07/21 04:51:50;;;;;;;2.50;1.85;;;18.80;99.90;;;;;;5094035;28;20210;-62
2022/07/21 04:54:16;;;;;;;2.50;1.98;;;18.80;99.90;;;;;;5075982;28;20178;-63
2022/07/21 04:56:42;;;;;;;2.55;2.15;;;18.80;99.90;;;;;;5093900;28;20646;-63
2022/07/21 04:59:09;;;;;;;3.00;2.38;;;18.80;99.90;;;;;;5076382;28;20192;-63
2022/07/21 05:01:35;;;;;;;5.60;2.42;;;18.70;99.90;;;;;;5093856;28;20547;-62
2022/07/21 05:04:00;;;;;;;2.92;1.75;;;18.80;99.90;;;;;;5076091;28;20212;-63
2022/07/21 05:06:26;;;;;;;2.83;2.10;;;18.80;99.90;;;;;;5075820;28;20210;-63
2022/07/21 05:08:52;;;;;;;2.67;2.00;;;18.70;99.90;;;;;;5075569;28;20188;-63
2022/07/21 05:11:18;;;;;;;3.47;2.58;;;18.80;99.90;;;;;;5093708;28;20562;-63
2022/07/21 05:13:46;;;;;;;3.55;2.25;;;18.80;99.90;;;;;;5075755;28;20186;-63
2022/07/21 05:16:12;;;;;;;2.38;2.17;;;18.80;99.90;;;;;;5075107;28;20516;-62
2022/07/21 05:18:38;;;;;;;4.20;2.83;;;18.60;99.90;;;;;;5059038;28;20244;-62
2022/07/21 05:21:04;;;;;;;2.67;2.33;;;18.70;99.90;;;;;;5093286;28;20240;-62
2022/07/21 05:23:29;;;;;;;3.03;2.53;;;18.70;99.90;;;;;;5058746;28;20539;-62
2022/07/21 05:25:56;;;;;;;4.72;2.90;;;18.70;99.90;;;;;;5075607;28;20256;-62
2022/07/21 05:28:21;;;;;;;3.88;2.50;;;18.60;99.90;;;;;;5093436;28;20170;-62
2022/07/21 05:30:47;;;;;;;3.40;2.33;;;18.70;99.90;;;;;;5093581;28;20174;-62
2022/07/21 05:33:13;;;;;;;3.50;2.70;;;18.70;99.90;;;;;;5093295;28;20220;-63
2022/07/21 05:35:39;;;;;;;4.43;2.75;;;18.70;99.90;;;;;;5093630;28;20207;-62
2022/07/21 05:38:05;;;;;;;4.28;3.00;;;18.70;99.90;;;;;;5075461;28;20189;-62
2022/07/21 05:40:30;;;;;;;4.38;2.95;;;18.70;99.90;;;;;;5075028;28;20190;-62
2022/07/21 05:42:56;;;;;;;3.63;2.90;;;18.80;99.90;;;;;;5088604;28;20189;-61
2022/07/21 05:45:22;;;;;;;4.07;2.50;;;18.80;99.90;;;;;;5075154;28;20174;-61
2022/07/21 05:47:48;;;;;;;4.75;3.00;;;18.70;99.90;;;;;;5093369;28;20201;-63
2022/07/21 05:50:13;;;;;;;4.38;2.85;;;18.70;99.90;;;;;;5092975;28;20551;-64
2022/07/21 05:52:39;;;;;;;4.78;2.95;;;18.70;99.90;;;;;;5075090;28;20206;-64
2022/07/21 05:55:06;;;;;;;3.22;2.60;;;18.80;99.90;;;;;;5092651;28;20252;-63
2022/07/21 05:57:32;;;;;;;4.22;2.75;;;18.70;99.90;;;;;;5092927;28;20170;-64
2022/07/21 05:59:58;;;;;;;3.88;2.45;;;18.70;99.90;;;;;;5093113;28;20216;-63
2022/07/21 06:02:24;;;;;;;4.13;2.58;;;18.70;99.90;;;;;;5092935;28;20643;-64
2022/07/21 06:04:50;;;;;;;4.47;2.97;;;18.70;99.90;;;;;;5092635;28;20588;-62
2022/07/21 06:07:16;;;;;;;2.95;2.42;;;18.70;99.90;;;;;;5074131;28;20170;-64
2022/07/21 06:09:42;;;;;;;3.33;2.60;;;18.60;99.90;;;;;;5092821;28;20193;-64
2022/07/21 06:12:08;;;;;;;3.92;2.78;;;18.40;99.90;;;;;;5093230;28;20655;-64
2022/07/21 06:14:33;;;;;;;3.55;2.60;;;18.40;99.90;;;;;;5093182;28;20178;-65
2022/07/21 06:16:59;;;;;;;3.28;2.58;;;18.40;99.90;;;;;;5092974;28;20167;-64
2022/07/21 06:19:25;;;;;;;3.72;2.65;;;18.50;99.90;;;;;;5075179;28;20170;-64
2022/07/21 06:21:51;;;;;;;3.40;2.25;;;18.50;99.90;;;;;;5077509;28;20186;-64
2022/07/21 06:24:19;;;;;;;3.08;2.58;;;18.60;99.90;;;;;;5096762;28;20249;-64
2022/07/21 06:26:45;;;;;;;5.25;3.00;;;18.70;99.90;;;;;;5097083;28;20577;-64
2022/07/21 06:29:10;;;;;;;4.22;2.63;;;18.60;99.90;;;;;;5079191;28;20170;-63
2022/07/21 06:31:36;;;;;;;5.13;2.90;;;18.70;99.90;;;;;;5096749;28;20569;-64
2022/07/21 06:34:03;;;;;;;7.30;3.65;;;18.70;99.90;;;;;;5096708;28;20173;-64
2022/07/21 06:36:28;;;;;;;5.72;3.80;;;18.80;99.90;;;;;;5096653;28;20170;-64
2022/07/21 06:38:54;;;;;;;6.32;4.28;;;18.90;99.90;;;;;;5078406;28;20688;-64
2022/07/21 06:41:20;;;;;;;5.57;3.65;;;18.80;99.90;;;;;;5096709;28;20178;-64
2022/07/21 06:43:45;;;;;;;5.38;3.28;;;18.90;99.90;;;;;;5096899;28;20174;-64
2022/07/21 06:46:11;;;;;;;5.93;3.90;;;18.90;99.90;;;;;;5096509;28;20223;-63
2022/07/21 06:48:39;;;;;;;4.95;3.50;;;18.90;99.90;;;;;;5096367;28;20181;-63
2022/07/21 06:51:05;;;;;;;7.68;4.05;;;19.00;99.90;;;;;;5096337;28;20201;-64
2022/07/21 06:53:31;;;;;;;6.47;3.53;;;18.90;99.90;;;;;;5061453;28;20581;-64
2022/07/21 06:55:57;;;;;;;5.22;3.90;;;19.00;99.90;;;;;;5096278;28;20174;-64
2022/07/21 06:58:24;;;;;;;5.55;3.83;;;19.00;99.90;;;;;;5075107;28;20688;-62
2022/07/21 07:00:51;;;;;;;6.60;3.90;;;19.00;99.90;;;;;;5094656;28;20220;-63
2022/07/21 07:03:18;;;;;;;5.60;3.58;;;19.00;99.90;;;;;;5077555;28;20189;-63
2022/07/21 07:05:46;;;;;;;5.70;4.00;;;19.10;99.90;;;;;;5093532;28;20177;-56
2022/07/21 07:08:13;;;;;;;4.95;3.10;;;19.10;99.90;;;;;;5090399;28;20279;-62
2022/07/21 07:10:43;;;;;;;4.78;2.83;;;19.10;99.90;;;;;;5092454;28;20663;-63
2022/07/21 07:13:10;;;;;;;5.38;3.28;;;19.20;99.90;;;;;;5093554;28;20641;-60
2022/07/21 07:15:36;;;;;;;3.72;2.67;;;19.20;99.90;;;;;;5093444;28;20684;-62
2022/07/21 07:18:01;;;;;;;3.47;2.45;;;19.20;99.90;;;;;;5093612;28;20186;-64
2022/07/21 07:20:28;;;;;;;4.15;3.42;;;19.20;99.90;;;;;;5079161;28;20217;-61
2022/07/21 07:22:54;;;;;;;3.13;2.58;;;19.20;99.90;;;;;;5056903;28;20186;-63
2022/07/21 07:25:20;;;;;;;4.03;2.45;;;19.20;99.90;;;;;;5075056;28;20539;-64
2022/07/21 07:27:50;;;;;;;3.55;2.50;;;19.20;99.90;;;;;;5056771;28;20183;-61
2022/07/21 07:30:18;;;;;;;3.13;2.40;;;19.10;99.90;;;;;;5074338;28;20182;-61
2022/07/21 07:32:47;;;;;;;2.72;2.10;;;19.20;99.90;;;;;;5073470;28;20198;-63
2022/07/21 07:35:14;;;;;;;3.03;2.35;;;19.10;99.90;;;;;;5073763;28;20197;-63
2022/07/21 07:37:41;;;;;;;3.10;2.25;;;19.20;99.90;;;;;;5074603;28;20175;-62
2022/07/21 07:40:10;;;;;;;2.95;2.30;;;19.10;99.90;;;;;;5066959;28;20182;-64
2022/07/21 07:42:37;;;;;;;2.53;2.05;;;19.10;99.90;;;;;;5094124;28;20174;-63
2022/07/21 07:45:05;;;;;;;3.63;2.58;;;19.20;99.90;;;;;;5094093;28;20285;-64
2022/07/21 07:47:31;;;;;;;3.10;2.58;;;19.20;99.90;;;;;;5093995;28;20637;-64
2022/07/21 07:49:57;;;;;;;3.15;2.42;;;19.10;99.90;;;;;;5086185;28;20182;-64
2022/07/21 07:52:23;;;;;;;2.92;2.40;;;19.10;99.90;;;;;;5055956;28;20738;-65
2022/07/21 07:54:49;;;;;;;3.03;2.08;;;19.00;99.90;;;;;;5073742;28;20182;-64
2022/07/21 07:57:14;;;;;;;2.67;2.08;;;19.10;99.90;;;;;;5073737;28;20171;-63
2022/07/21 07:59:40;;;;;;;3.85;2.65;;;19.00;99.90;;;;;;5073673;28;20219;-64
2022/07/21 08:02:06;;;;;;;3.85;2.65;;;19.00;99.90;;;;;;5054847;28;20227;-57
2022/07/21 08:04:31;;;;;;;4.00;2.40;;;19.00;99.90;;;;;;5074406;28;20182;-64
2022/07/21 08:06:57;;;;;;;2.50;1.98;;;19.00;99.90;;;;;;5093930;28;20170;-64
2022/07/21 08:09:23;;;;;;;2.70;2.03;;;19.10;99.90;;;;;;5093599;28;20178;-64
2022/07/21 08:11:50;;;;;;;3.55;2.50;;;19.10;99.90;;;;;;5093115;28;20210;-63
2022/07/21 08:14:17;;;;;;;3.83;2.72;;;19.10;99.90;;;;;;5092785;28;20200;-63
2022/07/21 08:16:43;;;;;;;2.65;2.10;;;19.00;99.90;;;;;;5093317;28;20245;-63
2022/07/21 08:19:09;;;;;;;2.13;1.88;;;19.00;99.90;;;;;;5075660;28;20194;-64
2022/07/21 08:21:35;;;;;;;3.53;2.55;;;19.00;99.90;;;;;;5094042;28;20296;-62
2022/07/21 08:24:01;;;;;;;2.60;2.40;;;19.00;99.90;;;;;;5093328;28;20650;-63
2022/07/21 08:26:27;;;;;;;3.30;2.35;;;19.00;99.90;;;;;;5093197;28;20174;-63
2022/07/21 08:28:57;;;;;;;2.50;2.10;;;19.00;99.90;;;;;;5093603;28;20181;-64
2022/07/21 08:31:24;;;;;;;3.33;2.35;;;19.00;99.90;;;;;;5093098;28;20236;-63
2022/07/21 08:33:51;;;;;;;2.40;1.83;;;19.00;99.90;;;;;;5093160;28;20178;-64
2022/07/21 08:36:17;;;;;;;3.65;2.60;;;18.90;99.90;;;;;;5092836;28;20696;-63
2022/07/21 08:38:43;;;;;;;3.45;2.40;;;19.00;99.90;;;;;;5093113;28;20215;-63
2022/07/21 08:41:09;;;;;;;4.13;2.65;;;18.90;99.90;;;;;;5093211;28;20213;-64
2022/07/21 08:43:35;;;;;;;3.28;2.42;;;19.00;99.90;;;;;;5092930;28;20598;-63
2022/07/21 08:46:01;;;;;;;3.15;2.15;;;19.00;99.90;;;;;;5092824;28;20174;-64
2022/07/21 08:48:29;;;;;;;5.75;3.10;;;19.10;99.90;;;;;;5092735;28;20185;-64
2022/07/21 08:50:55;;;;;;;3.67;2.75;;;19.10;99.90;;;;;;5092824;28;20178;-66
2022/07/21 08:53:22;;;;;;;3.17;2.28;;;19.10;99.90;;;;;;5092967;28;20566;-65
2022/07/21 08:55:48;;;;;;;3.70;3.13;;;19.10;99.90;;;;;;5092917;28;20166;-63
2022/07/21 08:58:14;;;;;;;3.00;2.50;;;19.10;99.90;;;;;;5074480;28;20181;-64
2022/07/21 09:00:45;;;;;;;2.90;2.28;;;19.20;99.90;;;;;;5092577;28;20170;-64
2022/07/21 09:03:18;;;;;;;3.28;2.50;;;19.20;99.90;;;;;;5092622;28;20172;-64
2022/07/21 09:06:08;;;;;;;3.63;2.05;;;19.20;99.90;;;;;;5092337;28;20167;-64
2022/07/21 09:08:54;;;;;;;2.38;2.08;;;19.20;99.90;;;;;;5092021;28;20251;-60
2022/07/21 09:11:43;;;;;;;3.75;1.98;;;19.20;99.90;;;;;;5074036;28;20273;-64
2022/07/21 09:14:13;;;;;;;3.28;2.13;;;19.10;99.90;;;;;;5074802;28;20326;-63
2022/07/21 09:16:42;;;;;;;1.90;1.60;;;19.20;99.90;;;;;;5092838;28;20707;-64
2022/07/21 09:19:22;;;;;;;3.05;2.25;;;19.10;99.90;;;;;;5074648;28;20260;-64
2022/07/21 09:21:50;;;;;;;2.13;1.75;;;19.10;99.90;;;;;;5092955;28;20201;-63
2022/07/21 09:24:25;;;;;;;1.73;1.50;;;19.00;99.90;;;;;;5092804;28;20169;-64
2022/07/21 09:27:14;;;;;;;2.25;1.73;;;19.00;99.90;;;;;;5092242;28;20205;-64
2022/07/21 09:30:00;;;;;;;2.30;1.55;;;18.90;99.90;;;;;;5092593;28;20178;-64
2022/07/21 09:32:28;;;;;;;2.10;1.80;;;19.00;99.90;;;;;;5092372;28;20198;-64
2022/07/21 09:35:09;;;;;;;1.70;1.60;;;19.20;99.90;;;;;;5074530;28;20174;-64
2022/07/21 09:37:36;;;;;;;1.88;1.35;;;19.20;99.90;;;;;;5092881;28;20166;-64
2022/07/21 09:40:08;;;;;;;2.58;1.50;;;19.10;99.90;;;;;;5093046;28;20260;-64
2022/07/21 09:42:36;;;;;;;3.08;1.90;;;19.20;99.90;;;;;;5092518;28;20177;-63
2022/07/21 09:45:11;;;;;;;1.77;1.30;;;19.20;99.90;;;;;;5092621;28;20170;-64
2022/07/21 09:47:38;;;;;;;2.33;1.60;;;19.20;99.90;;;;;;5074656;28;20260;-64
2022/07/21 09:50:05;;;;;;;1.77;1.65;;;19.20;99.90;;;;;;5092299;28;20174;-64
2022/07/21 09:52:38;;;;;;;1.92;1.52;;;19.10;99.90;;;;;;5074576;28;20200;-63
2022/07/21 09:55:10;;;;;;;1.88;1.27;;;19.10;99.90;;;;;;5074537;28;20527;-64
2022/07/21 09:57:36;;;;;;;2.13;1.58;;;19.10;99.90;;;;;;5096499;28;20231;-63
2022/07/21 10:00:05;;;;;;;1.55;1.45;;;19.10;99.90;;;;;;5096528;28;20196;-64
2022/07/21 10:02:32;;;;;;;2.05;1.58;;;19.00;99.90;;;;;;5096221;28;20174;-62
2022/07/21 10:05:05;;;;;;;2.03;1.83;;;19.00;99.90;;;;;;5095797;28;20323;-63
2022/07/21 10:07:35;;;;;;;3.28;2.20;;;19.00;99.90;;;;;;5096246;28;20502;-66
2022/07/21 10:10:00;;;;;;;2.38;2.17;;;19.10;99.90;;;;;;5096603;28;20194;-63
2022/07/21 10:12:27;;;;;;;3.03;1.95;;;19.20;99.90;;;;;;5096256;28;20220;-64
2022/07/21 10:14:54;;;;;;;2.45;2.05;;;19.30;99.90;;;;;;5096254;28;20178;-63
2022/07/21 10:17:21;;;;;;;3.05;2.10;;;19.30;99.90;;;;;;5096194;28;20232;-64
2022/07/21 10:20:10;;;;;;;2.25;1.92;;;19.40;99.90;;;;;;5095996;28;20170;-63
2022/07/21 10:23:14;;;;;;;2.50;1.73;;;19.30;99.90;;;;;;5096130;28;20583;-63
2022/07/21 10:25:42;;;;;;;1.92;1.73;;;19.40;99.90;;;;;;5095943;28;20161;-64
2022/07/21 10:28:14;;;;;;;2.78;1.50;;;19.20;99.90;;;;;;5095837;28;20263;-64
2022/07/21 10:30:43;;;;;;;1.95;1.60;;;19.20;99.90;;;;;;5096031;28;20182;-64
2022/07/21 10:33:09;;;;;;;2.70;1.40;;;19.10;99.90;;;;;;5095802;28;20202;-64
2022/07/21 10:35:39;;;;;;;2.50;1.70;;;19.00;99.90;;;;;;5095855;28;20170;-64
2022/07/21 10:38:04;;;;;;;1.92;1.77;;;19.00;99.90;;;;;;5095675;28;20631;-64
2022/07/21 10:40:31;;;;;;;2.28;2.00;;;19.00;99.90;;;;;;5095618;28;20189;-64
2022/07/21 10:43:00;;;;;;;2.28;1.92;;;19.00;99.90;;;;;;5077603;28;20180;-64
2022/07/21 10:45:36;;;;;;;1.75;1.52;;;19.00;99.90;;;;;;5095671;28;20170;-64
2022/07/21 10:48:04;;;;;;;1.73;1.42;;;19.00;99.90;;;;;;5095426;28;20174;-64
2022/07/21 10:50:30;;;;;;;1.63;1.52;;;19.00;99.90;;;;;;5077179;28;20249;-64
2022/07/21 10:52:57;;;;;;;2.05;1.85;;;19.00;99.90;;;;;;5095272;28;20262;-64
2022/07/21 10:55:27;;;;;;;2.13;1.63;;;19.00;99.90;;;;;;5095174;28;20189;-64
2022/07/21 10:58:37;;;;;;;1.92;1.50;;;18.90;99.90;;;;;;5095376;28;20287;-64
2022/07/21 11:01:15;;;;;;;2.00;1.77;;;18.90;99.90;;;;;;4993418;28;20204;-64
2022/07/21 11:03:42;;;;;;;1.88;1.70;;;18.90;99.90;;;;;;4994195;28;20178;-64
2022/07/21 11:06:21;;;;;;;2.72;2.10;;;19.00;99.90;;;;;;5054955;28;20186;-64
2022/07/21 11:09:08;;;;;;;2.35;1.50;;;19.00;99.90;;;;;;5094722;28;20646;-63
2022/07/21 11:11:37;;;;;;;2.00;1.67;;;18.90;99.90;;;;;;5095811;28;20209;-61
2022/07/21 11:14:10;;;;;;;2.25;1.20;;;18.90;99.90;;;;;;5077727;28;20192;-64
2022/07/21 11:16:41;;;;;;;1.77;1.48;;;19.00;99.90;;;;;;5095806;28;20166;-64
2022/07/21 11:19:26;;;;;;;2.22;1.90;;;19.00;99.90;;;;;;5077878;28;20504;-64
2022/07/21 11:21:52;;;;;;;1.30;1.20;;;18.90;99.90;;;;;;5096045;28;20619;-64
2022/07/21 11:24:19;;;;;;;4.40;2.50;;;19.00;99.90;;;;;;5060997;28;20177;-63
2022/07/21 11:26:52;;;;;;;5.47;3.00;;;19.00;99.90;;;;;;5077988;28;20181;-65
2022/07/21 11:29:18;;;;;;;2.45;1.98;;;19.00;99.90;;;;;;5095853;28;20242;-64
2022/07/21 11:31:48;;;;;;;1.65;1.20;;;18.90;99.90;;;;;;5095613;28;20589;-64
2022/07/21 11:34:14;;;;;;;1.63;1.42;;;19.00;99.90;;;;;;5077349;28;20643;-64
2022/07/21 11:36:39;;;;;;;4.03;2.33;;;19.00;99.90;;;;;;5095455;28;20673;-63
2022/07/21 11:39:14;;;;;;;3.17;2.03;;;19.00;99.90;;;;;;5095766;28;20186;-64
2022/07/21 11:41:42;;;;;;;12.50;5.45;;;18.90;99.90;;;;;;5094933;28;20212;-64
2022/07/21 11:44:11;;;;;;;2.42;1.67;;;19.00;99.90;;;;;;5058649;28;20208;-61
2022/07/21 11:46:51;;;;;;;2.17;1.55;;;19.00;99.90;;;;;;5093151;28;20257;-62
2022/07/21 11:49:18;;;;;;;2.42;1.40;;;19.00;99.90;;;;;;5093099;28;20166;-63
2022/07/21 11:52:00;;;;;;;2.35;1.27;;;19.00;99.90;;;;;;5093050;28;20567;-61
2022/07/21 11:54:44;;;;;;;1.58;1.48;;;19.00;99.90;;;;;;5074977;28;20177;-63
2022/07/21 11:57:10;;;;;;;1.48;1.00;;;19.10;99.90;;;;;;5093051;28;20546;-63
2022/07/21 11:59:40;;;;;;;1.52;1.00;;;19.00;99.90;;;;;;5076790;28;20581;-64
2022/07/21 12:02:12;;;;;;;1.92;0.85;;;19.00;99.90;;;;;;5077438;28;20627;-64
2022/07/21 12:04:46;;;;;;;1.83;1.00;;;19.10;99.90;;;;;;5095235;28;20179;-64
2022/07/21 12:07:22;;;;;;;1.48;1.10;;;19.00;99.90;;;;;;5095058;28;20279;-63
2022/07/21 12:09:51;;;;;;;1.08;0.98;;;19.00;99.90;;;;;;5095330;28;20255;-63
2022/07/21 12:12:44;;;;;;;0.88;0.85;;;19.00;99.90;;;;;;5076546;28;20205;-63
2022/07/21 12:15:23;;;;;;;2.10;0.90;;;19.00;99.90;;;;;;5094870;28;20641;-60
2022/07/21 12:17:48;;;;;;;1.08;0.98;;;19.10;99.90;;;;;;5094704;28;20162;-63
2022/07/21 12:20:23;;;;;;;3.45;1.00;;;19.00;99.90;;;;;;5076282;28;20226;-63
2022/07/21 12:22:49;;;;;;;0.88;0.77;;;19.00;99.90;;;;;;5094820;28;20192;-63
2022/07/21 12:25:17;;;;;;;2.13;1.30;;;19.10;99.90;;;;;;5076512;28;20181;-63
2022/07/21 12:27:46;;;;;;;1.02;0.93;;;19.10;99.90;;;;;;5076736;28;20174;-63
2022/07/21 12:30:39;;;;;;;0.93;0.88;;;19.00;99.90;;;;;;5094520;28;20205;-63
2022/07/21 12:33:11;;;;;;;0.73;0.70;;;19.00;99.90;;;;;;5094236;28;20227;-64
2022/07/21 12:35:39;;;;;;;1.95;0.95;;;19.10;99.90;;;;;;5094392;28;20185;-63
2022/07/21 12:38:11;;;;;;;1.45;1.05;;;19.10;99.90;;;;;;5076609;28;20257;-63
2022/07/21 12:40:40;;;;;;;1.40;1.10;;;19.10;99.90;;;;;;5094433;28;20178;-63
2022/07/21 12:43:18;;;;;;;1.20;1.10;;;19.00;99.90;;;;;;5094186;28;20169;-63
2022/07/21 12:45:47;;;;;;;0.90;0.88;;;19.00;99.90;;;;;;5094343;28;20256;-63
2022/07/21 12:48:16;;;;;;;2.75;1.00;;;19.10;99.90;;;;;;5094245;28;20296;-63
2022/07/21 12:50:42;;;;;;;0.80;0.80;;;19.10;99.90;;;;;;5076105;28;20185;-63
2022/07/21 12:53:11;;;;;;;1.25;1.15;;;19.30;99.90;;;;;;5076197;28;20233;-64
2022/07/21 12:55:38;;;;;;;1.52;1.20;;;19.30;99.90;;;;;;5075926;28;20178;-63